Time;durP1;ratioP1;P1;durP2;ratioP2;P2;SDS_P1;SDS_P2;PMS_P1;PMS_P2;Temp;Humidity;BMP_temperature;BMP_pressure;BME280_temperature;BME280_humidity;BME280_pressure;Samples;Min_cycle;Max_cycle;Signal;HPM_P1;HPM_P2
2024/04/06 00:00:31;;;;;;;2.00;1.20;;;;;;;;;;5068874;28;20241;-58
2024/04/06 00:02:57;;;;;;;1.30;1.15;;;;;;;;;;5068408;28;20207;-59
2024/04/06 00:05:23;;;;;;;1.33;1.23;;;;;;;;;;5068740;28;20210;-59
2024/04/06 00:07:49;;;;;;;0.77;0.75;;;;;;;;;;5068265;28;20731;-59
2024/04/06 00:10:16;;;;;;;1.08;1.00;;;;;;;;;;5068302;28;20214;-57
2024/04/06 00:12:41;;;;;;;1.00;0.90;;;;;;;;;;5068608;28;20676;-57
2024/04/06 00:15:09;;;;;;;1.10;1.00;;;;;;;;;;5067853;28;20205;-57
2024/04/06 00:17:35;;;;;;;1.20;0.93;;;;;;;;;;5049299;28;20199;-56
2024/04/06 00:20:03;;;;;;;0.90;0.70;;;;;;;;;;5068293;28;20229;-57
2024/04/06 00:22:28;;;;;;;1.58;0.85;;;;;;;;;;5067987;28;20209;-58
2024/04/06 00:24:55;;;;;;;1.38;1.27;;;;;;;;;;5068018;28;20228;-58
2024/04/06 00:27:21;;;;;;;4.35;1.60;;;;;;;;;;5068227;28;20219;-56
2024/04/06 00:29:48;;;;;;;1.00;0.88;;;;;;;;;;5067924;28;20570;-57
2024/04/06 00:32:15;;;;;;;0.65;0.65;;;;;;;;;;5067336;28;20777;-58
2024/04/06 00:34:41;;;;;;;1.70;1.30;;;;;;;;;;5068093;28;20239;-58
2024/04/06 00:37:08;;;;;;;2.33;1.50;;;;;;;;;;5067895;28;20590;-58
2024/04/06 00:39:34;;;;;;;3.38;1.02;;;;;;;;;;5067693;28;20311;-56
2024/04/06 00:42:00;;;;;;;1.73;1.33;;;;;;;;;;5067653;28;20231;-58
2024/04/06 00:44:26;;;;;;;1.60;1.50;;;;;;;;;;5067633;28;20580;-60
2024/04/06 00:46:52;;;;;;;1.98;1.40;;;;;;;;;;5067993;28;20203;-57
2024/04/06 00:49:20;;;;;;;1.85;1.42;;;;;;;;;;5067786;28;20584;-57
2024/04/06 00:51:46;;;;;;;2.38;1.98;;;;;;;;;;5048565;28;20191;-57
2024/04/06 00:54:12;;;;;;;1.77;1.38;;;;;;;;;;5067628;28;20203;-58
2024/04/06 00:56:38;;;;;;;1.73;1.50;;;;;;;;;;5067650;28;20586;-57
2024/04/06 00:59:05;;;;;;;1.52;1.23;;;;;;;;;;5067397;28;20198;-58
2024/04/06 01:01:30;;;;;;;1.05;0.93;;;;;;;;;;5066972;28;20198;-58
2024/04/06 01:03:57;;;;;;;2.05;1.33;;;;;;;;;;5066639;28;20195;-57
2024/04/06 01:06:24;;;;;;;1.23;1.05;;;;;;;;;;5067310;28;20191;-57
2024/04/06 01:08:51;;;;;;;1.92;1.38;;;;;;;;;;5066769;28;20289;-58
2024/04/06 01:11:16;;;;;;;1.40;1.08;;;;;;;;;;5067175;28;20738;-58
2024/04/06 01:13:43;;;;;;;1.85;1.40;;;;;;;;;;5067144;28;20298;-58
2024/04/06 01:16:08;;;;;;;2.22;1.60;;;;;;;;;;5067141;28;20203;-57
2024/04/06 01:18:35;;;;;;;1.25;1.17;;;;;;;;;;5047618;28;20195;-56
2024/04/06 01:21:03;;;;;;;2.45;1.23;;;;;;;;;;5066950;28;20241;-56
2024/04/06 01:23:31;;;;;;;2.28;1.42;;;;;;;;;;5067022;28;20253;-58
2024/04/06 01:25:58;;;;;;;1.35;1.25;;;;;;;;;;5066719;28;20222;-58
2024/04/06 01:28:24;;;;;;;2.88;1.55;;;;;;;;;;5066817;28;20199;-58
2024/04/06 01:30:50;;;;;;;1.50;1.40;;;;;;;;;;5066690;28;20202;-57
2024/04/06 01:33:16;;;;;;;2.10;1.90;;;;;;;;;;5067295;28;20206;-58
2024/04/06 01:35:42;;;;;;;2.13;1.45;;;;;;;;;;5067196;28;20199;-58
2024/04/06 01:38:08;;;;;;;2.33;1.80;;;;;;;;;;5067053;28;20583;-57
2024/04/06 01:40:34;;;;;;;1.55;1.45;;;;;;;;;;5066677;28;20231;-58
2024/04/06 01:43:02;;;;;;;1.63;1.52;;;;;;;;;;5066761;28;20234;-58
2024/04/06 01:45:27;;;;;;;1.92;1.60;;;;;;;;;;5066316;28;20199;-58
2024/04/06 01:47:54;;;;;;;2.10;1.73;;;;;;;;;;5047561;28;20210;-55
2024/04/06 01:50:19;;;;;;;1.73;1.58;;;;;;;;;;5066972;28;20199;-58
2024/04/06 01:52:46;;;;;;;1.45;1.33;;;;;;;;;;5066738;28;20209;-58
2024/04/06 01:55:11;;;;;;;3.40;1.70;;;;;;;;;;5066701;28;20837;-57
2024/04/06 01:57:38;;;;;;;1.30;1.20;;;;;;;;;;5066730;28;20282;-58
2024/04/06 02:00:08;;;;;;;1.20;1.10;;;;;;;;;;5066596;28;20661;-57
2024/04/06 02:02:35;;;;;;;1.88;1.23;;;;;;;;;;5031527;28;20209;-58
2024/04/06 02:05:00;;;;;;;1.45;1.00;;;;;;;;;;5066634;28;20578;-58
2024/04/06 02:07:27;;;;;;;0.88;0.88;;;;;;;;;;5066766;28;20206;-58
2024/04/06 02:09:52;;;;;;;1.10;1.00;;;;;;;;;;5066650;28;20203;-58
2024/04/06 02:12:19;;;;;;;1.25;1.13;;;;;;;;;;5066486;28;20210;-57
2024/04/06 02:14:44;;;;;;;2.28;1.30;;;;;;;;;;5066555;28;20237;-58
2024/04/06 02:17:12;;;;;;;2.33;1.45;;;;;;;;;;5070886;28;20230;-57
2024/04/06 02:19:38;;;;;;;2.28;1.65;;;;;;;;;;5070628;28;20195;-58
2024/04/06 02:22:04;;;;;;;2.17;1.67;;;;;;;;;;5070987;28;20202;-58
2024/04/06 02:24:30;;;;;;;1.88;1.45;;;;;;;;;;5070961;28;20202;-57
2024/04/06 02:26:57;;;;;;;1.70;1.60;;;;;;;;;;5034962;28;20315;-58
2024/04/06 02:29:23;;;;;;;1.52;1.30;;;;;;;;;;5070418;28;20199;-57
2024/04/06 02:31:49;;;;;;;1.48;1.20;;;;;;;;;;5070332;28;20203;-57
2024/04/06 02:34:16;;;;;;;1.13;0.95;;;;;;;;;;5070672;28;20207;-58
2024/04/06 02:36:42;;;;;;;1.10;1.05;;;;;;;;;;5070868;28;20210;-57
2024/04/06 02:39:10;;;;;;;1.30;1.17;;;;;;;;;;5070406;28;20199;-57
2024/04/06 02:41:36;;;;;;;0.95;0.90;;;;;;;;;;5070043;28;20235;-57
2024/04/06 02:44:02;;;;;;;1.67;1.00;;;;;;;;;;5070072;28;20199;-58
2024/04/06 02:46:29;;;;;;;1.00;0.85;;;;;;;;;;5069885;28;20206;-58
2024/04/06 02:48:54;;;;;;;2.95;1.40;;;;;;;;;;5034405;28;20676;-57
2024/04/06 02:51:22;;;;;;;1.70;1.42;;;;;;;;;;5070090;28;20217;-57
2024/04/06 02:53:48;;;;;;;1.70;0.98;;;;;;;;;;5069559;28;20203;-57
2024/04/06 02:56:16;;;;;;;1.67;1.13;;;;;;;;;;5069890;28;20210;-58
2024/04/06 02:58:42;;;;;;;1.08;1.00;;;;;;;;;;5070064;28;20294;-58
2024/04/06 03:01:08;;;;;;;1.00;0.90;;;;;;;;;;5069901;28;20253;-58
2024/04/06 03:03:34;;;;;;;2.20;1.17;;;;;;;;;;5069846;28;20225;-58
2024/04/06 03:06:01;;;;;;;1.65;1.55;;;;;;;;;;5069699;28;20684;-58
2024/04/06 03:08:28;;;;;;;1.95;1.48;;;;;;;;;;5069938;28;20231;-58
2024/04/06 03:10:54;;;;;;;1.63;1.52;;;;;;;;;;5069446;28;20206;-60
2024/04/06 03:13:20;;;;;;;1.63;1.50;;;;;;;;;;5069023;28;20231;-59
2024/04/06 03:15:46;;;;;;;1.30;1.20;;;;;;;;;;5069126;28;20661;-57
2024/04/06 03:18:12;;;;;;;2.60;1.65;;;;;;;;;;5069819;28;20203;-58
2024/04/06 03:20:38;;;;;;;1.90;1.70;;;;;;;;;;5069359;28;20812;-58
2024/04/06 03:23:05;;;;;;;3.35;1.85;;;;;;;;;;5069948;28;20203;-58
2024/04/06 03:25:33;;;;;;;2.05;1.73;;;;;;;;;;5069441;28;20203;-58
2024/04/06 03:27:59;;;;;;;2.28;2.03;;;;;;;;;;5068474;28;20234;-57
2024/04/06 03:30:26;;;;;;;1.95;1.55;;;;;;;;;;5069253;28;20596;-57
2024/04/06 03:32:52;;;;;;;2.53;2.30;;;;;;;;;;5069174;28;20202;-57
2024/04/06 03:35:19;;;;;;;2.15;1.77;;;;;;;;;;5069089;28;20202;-56
2024/04/06 03:37:46;;;;;;;4.72;3.00;;;;;;;;;;5069252;28;20195;-57
2024/04/06 03:40:13;;;;;;;3.60;2.53;;;;;;;;;;5069093;28;20280;-57
2024/04/06 03:42:41;;;;;;;1.73;1.60;;;;;;;;;;5068649;28;20230;-58
2024/04/06 03:45:10;;;;;;;2.28;2.08;;;;;;;;;;5068645;28;20231;-57
2024/04/06 03:47:36;;;;;;;2.33;2.13;;;;;;;;;;5068739;28;20202;-58
2024/04/06 03:50:02;;;;;;;1.75;1.60;;;;;;;;;;5049445;28;20191;-56
2024/04/06 03:52:28;;;;;;;2.72;1.95;;;;;;;;;;5068357;28;20260;-57
2024/04/06 03:54:54;;;;;;;2.55;2.13;;;;;;;;;;5048918;28;20199;-59
2024/04/06 03:57:20;;;;;;;3.33;2.13;;;;;;;;;;5068604;28;20572;-59
2024/04/06 03:59:47;;;;;;;3.42;2.33;;;;;;;;;;5049153;28;20256;-57
2024/04/06 04:02:15;;;;;;;4.47;2.42;;;;;;;;;;5068313;28;20294;-59
2024/04/06 04:04:41;;;;;;;2.67;2.38;;;;;;;;;;5068519;28;20195;-58
2024/04/06 04:07:08;;;;;;;2.88;2.38;;;;;;;;;;5068043;28;20202;-59
2024/04/06 04:09:34;;;;;;;3.13;2.33;;;;;;;;;;5032572;28;20232;-59
2024/04/06 04:12:01;;;;;;;3.20;2.33;;;;;;;;;;5068038;28;20207;-57
2024/04/06 04:14:27;;;;;;;7.65;2.78;;;;;;;;;;5068047;28;20202;-56
2024/04/06 04:16:55;;;;;;;2.95;2.40;;;;;;;;;;5068338;28;20199;-58
2024/04/06 04:19:20;;;;;;;3.42;3.13;;;;;;;;;;5032599;28;20203;-56
2024/04/06 04:21:47;;;;;;;3.45;2.78;;;;;;;;;;5068077;28;20223;-58
2024/04/06 04:24:12;;;;;;;3.40;3.10;;;;;;;;;;5068151;28;20207;-60
2024/04/06 04:26:39;;;;;;;2.47;1.83;;;;;;;;;;5067821;28;20227;-59
2024/04/06 04:29:04;;;;;;;4.43;2.40;;;;;;;;;;5067845;28;20195;-56
2024/04/06 04:31:31;;;;;;;3.13;2.20;;;;;;;;;;5067798;28;20651;-57
2024/04/06 04:33:58;;;;;;;2.92;2.20;;;;;;;;;;5067527;28;20664;-59
2024/04/06 04:36:24;;;;;;;1.83;1.73;;;;;;;;;;5067517;28;20210;-58
2024/04/06 04:38:50;;;;;;;2.13;1.80;;;;;;;;;;5067794;28;20214;-59
2024/04/06 04:41:17;;;;;;;1.70;1.60;;;;;;;;;;5067468;28;20247;-58
2024/04/06 04:43:42;;;;;;;2.50;1.80;;;;;;;;;;5067739;28;20578;-59
2024/04/06 04:46:09;;;;;;;5.15;4.45;;;;;;;;;;5048608;28;20206;-60
2024/04/06 04:48:49;;;;;;;5.40;4.85;;;;;;;;;;5067278;28;20203;-59
2024/04/06 04:51:17;;;;;;;5.25;4.57;;;;;;;;;;5067387;28;20203;-59
2024/04/06 04:53:43;;;;;;;4.28;3.88;;;;;;;;;;5048641;28;20207;-57
2024/04/06 04:56:09;;;;;;;4.13;3.65;;;;;;;;;;5067482;28;20643;-59
2024/04/06 04:58:35;;;;;;;4.43;3.50;;;;;;;;;;5066945;28;20210;-58
2024/04/06 05:01:01;;;;;;;4.63;3.55;;;;;;;;;;5067125;28;20613;-58
2024/04/06 05:03:27;;;;;;;5.32;3.47;;;;;;;;;;5067017;28;20207;-59
2024/04/06 05:05:54;;;;;;;6.78;4.60;;;;;;;;;;5067184;28;20258;-57
2024/04/06 05:08:21;;;;;;;4.40;4.00;;;;;;;;;;5067117;28;20203;-58
2024/04/06 05:10:48;;;;;;;4.05;3.22;;;;;;;;;;5066653;28;20221;-57
2024/04/06 05:13:14;;;;;;;3.50;3.00;;;;;;;;;;5066623;28;20207;-57
2024/04/06 05:15:41;;;;;;;2.85;2.65;;;;;;;;;;5067007;28;20207;-57
2024/04/06 05:18:07;;;;;;;4.10;2.75;;;;;;;;;;5067118;28;20253;-56
2024/04/06 05:20:33;;;;;;;3.70;2.40;;;;;;;;;;5066769;28;20239;-57
2024/04/06 05:22:59;;;;;;;3.75;2.85;;;;;;;;;;5067037;28;20195;-57
2024/04/06 05:25:27;;;;;;;3.95;2.80;;;;;;;;;;5066861;28;20285;-57
2024/04/06 05:27:53;;;;;;;6.05;2.78;;;;;;;;;;5066473;28;20226;-56
2024/04/06 05:30:19;;;;;;;3.40;2.60;;;;;;;;;;5066650;28;20203;-55
2024/04/06 05:32:45;;;;;;;5.43;2.85;;;;;;;;;;5066993;28;20199;-57
2024/04/06 05:35:12;;;;;;;6.53;3.90;;;;;;;;;;5066882;28;20698;-58
2024/04/06 05:37:38;;;;;;;9.02;8.15;;;;;;;;;;5030847;28;20206;-57
2024/04/06 05:40:05;;;;;;;6.55;5.95;;;;;;;;;;5031005;28;20584;-57
2024/04/06 05:42:32;;;;;;;10.07;5.75;;;;;;;;;;5066522;28;20223;-57
2024/04/06 05:44:59;;;;;;;6.13;4.43;;;;;;;;;;5066643;28;20616;-56
2024/04/06 05:47:24;;;;;;;4.75;3.58;;;;;;;;;;5066778;28;20199;-56
2024/04/06 05:49:51;;;;;;;3.17;2.50;;;;;;;;;;5065814;28;20252;-55
2024/04/06 05:52:17;;;;;;;3.13;2.22;;;;;;;;;;5066335;28;20714;-56
2024/04/06 05:54:44;;;;;;;2.10;1.90;;;;;;;;;;5066360;28;20202;-54
2024/04/06 05:57:09;;;;;;;3.20;1.95;;;;;;;;;;5066311;28;20201;-55
2024/04/06 05:59:38;;;;;;;2.78;2.15;;;;;;;;;;5046961;28;20203;-55
2024/04/06 06:02:03;;;;;;;2.47;1.85;;;;;;;;;;5066423;28;20269;-56
2024/04/06 06:04:30;;;;;;;2.50;1.77;;;;;;;;;;5066277;28;20198;-54
2024/04/06 06:06:56;;;;;;;3.03;2.17;;;;;;;;;;5066323;28;20277;-56
2024/04/06 06:09:22;;;;;;;2.67;1.92;;;;;;;;;;5030696;28;20672;-55
2024/04/06 06:11:49;;;;;;;3.70;1.90;;;;;;;;;;5047160;28;20604;-55
2024/04/06 06:14:16;;;;;;;2.13;1.90;;;;;;;;;;5066075;28;20203;-55
2024/04/06 06:16:43;;;;;;;3.22;1.70;;;;;;;;;;5066164;28;20220;-57
2024/04/06 06:19:09;;;;;;;2.10;1.90;;;;;;;;;;5030576;28;20237;-57
2024/04/06 06:21:35;;;;;;;1.77;1.65;;;;;;;;;;5066485;28;20222;-56
2024/04/06 06:24:03;;;;;;;2.35;1.83;;;;;;;;;;5067062;28;20256;-54
2024/04/06 06:26:28;;;;;;;3.25;2.13;;;;;;;;;;5066326;28;20715;-56
2024/04/06 06:28:55;;;;;;;4.18;2.30;;;;;;;;;;5047254;28;20264;-54
2024/04/06 06:31:22;;;;;;;1.83;1.70;;;;;;;;;;5066252;28;20690;-56
2024/04/06 06:33:50;;;;;;;2.28;2.08;;;;;;;;;;5065734;28;20199;-56
2024/04/06 06:36:17;;;;;;;2.03;1.83;;;;;;;;;;5065799;28;20199;-57
2024/04/06 06:38:45;;;;;;;2.72;1.80;;;;;;;;;;5065993;28;20648;-56
2024/04/06 06:41:11;;;;;;;2.47;2.22;;;;;;;;;;5065613;28;20238;-55
2024/04/06 06:43:38;;;;;;;3.85;2.13;;;;;;;;;;5065478;28;20209;-54
2024/04/06 06:46:04;;;;;;;4.35;1.83;;;;;;;;;;5030487;28;20290;-55
2024/04/06 06:48:30;;;;;;;1.70;1.60;;;;;;;;;;5065558;28;20659;-55
2024/04/06 06:50:57;;;;;;;2.67;1.75;;;;;;;;;;5065719;28;20203;-54
2024/04/06 06:53:24;;;;;;;1.65;1.55;;;;;;;;;;5065817;28;20282;-56
2024/04/06 06:55:50;;;;;;;2.83;1.83;;;;;;;;;;5065689;28;20195;-51
2024/04/06 06:58:16;;;;;;;2.33;2.13;;;;;;;;;;5065326;28;20257;-53
2024/04/06 07:00:45;;;;;;;3.17;2.20;;;;;;;;;;5065864;28;20258;-56
2024/04/06 07:03:11;;;;;;;3.42;2.08;;;;;;;;;;5067530;28;20287;-55
2024/04/06 07:05:37;;;;;;;3.50;2.25;;;;;;;;;;5069174;28;20205;-54
2024/04/06 07:08:05;;;;;;;2.20;1.83;;;;;;;;;;5069192;28;20207;-55
2024/04/06 07:10:37;;;;;;;4.15;1.70;;;;;;;;;;5033454;28;20291;-55
2024/04/06 07:13:03;;;;;;;2.25;1.55;;;;;;;;;;5069009;28;20210;-50
2024/04/06 07:15:30;;;;;;;2.35;1.70;;;;;;;;;;5068909;28;20702;-54
2024/04/06 07:17:57;;;;;;;2.72;1.80;;;;;;;;;;5049816;28;20687;-55
2024/04/06 07:20:24;;;;;;;2.15;1.70;;;;;;;;;;5068836;28;20246;-53
2024/04/06 07:22:50;;;;;;;2.90;1.70;;;;;;;;;;5068776;28;20234;-54
2024/04/06 07:25:19;;;;;;;2.72;1.92;;;;;;;;;;5068566;28;20238;-54
2024/04/06 07:27:45;;;;;;;4.10;1.63;;;;;;;;;;5068572;28;20234;-53
2024/04/06 07:30:12;;;;;;;3.20;1.48;;;;;;;;;;5068838;28;20203;-55
2024/04/06 07:32:37;;;;;;;2.70;1.50;;;;;;;;;;5068826;28;20206;-54
2024/04/06 07:35:05;;;;;;;2.33;1.58;;;;;;;;;;5068712;28;20202;-54
2024/04/06 07:37:31;;;;;;;2.50;1.35;;;;;;;;;;5033221;28;20249;-56
2024/04/06 07:39:58;;;;;;;2.70;1.50;;;;;;;;;;5068488;28;20199;-51
2024/04/06 07:42:25;;;;;;;2.75;1.50;;;;;;;;;;5068081;28;20246;-54
2024/04/06 07:44:51;;;;;;;3.58;1.92;;;;;;;;;;5068645;28;20582;-54
2024/04/06 07:47:17;;;;;;;4.50;2.47;;;;;;;;;;5049375;28;20198;-52
2024/04/06 07:49:44;;;;;;;4.35;2.65;;;;;;;;;;5068383;28;20279;-52
2024/04/06 07:52:10;;;;;;;2.50;1.48;;;;;;;;;;5068391;28;20203;-51
2024/04/06 07:54:36;;;;;;;1.23;1.05;;;;;;;;;;5068131;28;20215;-53
2024/04/06 07:57:03;;;;;;;1.55;1.10;;;;;;;;;;5068131;28;20203;-54
2024/04/06 07:59:31;;;;;;;2.58;1.58;;;;;;;;;;5068277;28;20377;-52
2024/04/06 08:01:56;;;;;;;1.95;1.70;;;;;;;;;;5068017;28;20226;-52
2024/04/06 08:04:23;;;;;;;2.65;1.65;;;;;;;;;;5068164;28;20202;-53
2024/04/06 08:06:50;;;;;;;1.80;0.98;;;;;;;;;;5067817;28;20211;-54
2024/04/06 08:09:17;;;;;;;1.15;0.82;;;;;;;;;;5067964;28;20210;-52
2024/04/06 08:11:42;;;;;;;1.63;0.80;;;;;;;;;;5067809;28;20605;-50
2024/04/06 08:14:09;;;;;;;0.80;0.75;;;;;;;;;;5067715;28;20210;-51
2024/04/06 08:16:40;;;;;;;1.52;0.88;;;;;;;;;;5067873;28;20194;-54
2024/04/06 08:19:06;;;;;;;0.90;0.60;;;;;;;;;;5067762;28;20203;-55
2024/04/06 08:21:32;;;;;;;0.60;0.60;;;;;;;;;;5067997;28;20219;-52
2024/04/06 08:23:58;;;;;;;1.40;0.77;;;;;;;;;;5067644;28;20202;-54
2024/04/06 08:26:24;;;;;;;1.20;0.80;;;;;;;;;;5067376;28;20233;-53
2024/04/06 08:28:52;;;;;;;1.42;0.63;;;;;;;;;;5067557;28;20203;-52
2024/04/06 08:31:17;;;;;;;0.95;0.80;;;;;;;;;;5067651;28;20199;-52
2024/04/06 08:33:45;;;;;;;1.23;0.80;;;;;;;;;;5048640;28;20202;-52
2024/04/06 08:36:11;;;;;;;0.75;0.63;;;;;;;;;;5067627;28;20207;-54
2024/04/06 08:38:38;;;;;;;1.58;0.90;;;;;;;;;;5067273;28;20203;-54
2024/04/06 08:41:07;;;;;;;0.77;0.50;;;;;;;;;;5066910;28;20360;-53
2024/04/06 08:43:36;;;;;;;0.85;0.60;;;;;;;;;;5067395;28;20203;-53
2024/04/06 08:46:03;;;;;;;0.70;0.70;;;;;;;;;;5067350;28;20214;-55
2024/04/06 08:48:31;;;;;;;2.22;1.30;;;;;;;;;;5067223;28;20324;-53
2024/04/06 08:50:58;;;;;;;1.52;0.60;;;;;;;;;;5067331;28;20213;-53
2024/04/06 08:53:25;;;;;;;2.05;0.47;;;;;;;;;;5067322;28;20632;-55
2024/04/06 08:55:51;;;;;;;0.82;0.60;;;;;;;;;;5067007;28;20203;-51
2024/04/06 08:58:18;;;;;;;1.40;0.90;;;;;;;;;;5047896;28;20206;-56
2024/04/06 09:00:47;;;;;;;0.57;0.40;;;;;;;;;;5067164;28;20727;-55
2024/04/06 09:03:13;;;;;;;0.40;0.40;;;;;;;;;;5066995;28;20211;-52
2024/04/06 09:05:41;;;;;;;1.63;0.60;;;;;;;;;;5067101;28;20298;-56
2024/04/06 09:08:09;;;;;;;0.25;0.25;;;;;;;;;;5067044;28;20248;-53
2024/04/06 09:10:35;;;;;;;2.25;0.82;;;;;;;;;;5066672;28;20202;-55
2024/04/06 09:13:02;;;;;;;1.13;0.85;;;;;;;;;;5066924;28;20203;-55
2024/04/06 09:15:29;;;;;;;1.38;0.90;;;;;;;;;;5031266;28;20205;-56
2024/04/06 09:17:56;;;;;;;1.65;0.98;;;;;;;;;;5066761;28;20206;-51
2024/04/06 09:20:21;;;;;;;1.63;1.02;;;;;;;;;;5066638;28;20203;-54
2024/04/06 09:22:48;;;;;;;1.50;0.70;;;;;;;;;;5066755;28;20241;-54
2024/04/06 09:25:15;;;;;;;0.70;0.70;;;;;;;;;;5065756;28;20234;-54
2024/04/06 09:27:44;;;;;;;2.03;0.60;;;;;;;;;;5066963;28;20280;-53
2024/04/06 09:30:11;;;;;;;1.30;0.63;;;;;;;;;;5066661;28;20276;-53
2024/04/06 09:32:38;;;;;;;2.05;0.93;;;;;;;;;;5066329;28;20294;-55
2024/04/06 09:35:04;;;;;;;0.85;0.65;;;;;;;;;;5066449;28;20199;-52
2024/04/06 09:37:33;;;;;;;1.10;0.60;;;;;;;;;;5066078;28;20252;-55
2024/04/06 09:39:59;;;;;;;0.30;0.30;;;;;;;;;;5066406;28;20203;-54
2024/04/06 09:42:27;;;;;;;0.47;0.32;;;;;;;;;;5066218;28;20245;-55
2024/04/06 09:44:54;;;;;;;0.80;0.30;;;;;;;;;;5066376;28;20195;-55
2024/04/06 09:47:22;;;;;;;0.40;0.40;;;;;;;;;;5047505;28;20282;-52
2024/04/06 09:49:48;;;;;;;0.95;0.40;;;;;;;;;;5066485;28;20206;-54
2024/04/06 09:52:15;;;;;;;0.82;0.70;;;;;;;;;;5066186;28;20210;-54
2024/04/06 09:54:41;;;;;;;0.40;0.40;;;;;;;;;;5066313;28;20213;-53
2024/04/06 09:57:07;;;;;;;0.40;0.40;;;;;;;;;;5066664;28;20202;-53
2024/04/06 09:59:34;;;;;;;1.35;0.40;;;;;;;;;;5047159;28;20231;-54
2024/04/06 10:02:02;;;;;;;0.65;0.20;;;;;;;;;;5047233;28;20303;-54
2024/04/06 10:04:29;;;;;;;0.50;0.20;;;;;;;;;;5066297;28;20245;-53
2024/04/06 10:06:57;;;;;;;0.30;0.30;;;;;;;;;;5066317;28;20207;-51
2024/04/06 10:09:28;;;;;;;1.13;0.40;;;;;;;;;;5066395;28;20302;-54
2024/04/06 10:11:58;;;;;;;0.43;0.43;;;;;;;;;;5066686;28;20215;-52
2024/04/06 10:14:24;;;;;;;0.20;0.20;;;;;;;;;;5066362;28;20210;-55
2024/04/06 10:16:51;;;;;;;1.27;0.30;;;;;;;;;;5066174;28;20206;-54
2024/04/06 10:19:18;;;;;;;0.52;0.40;;;;;;;;;;5066249;28;20203;-54
2024/04/06 10:21:45;;;;;;;0.77;0.40;;;;;;;;;;5066066;28;20286;-56
2024/04/06 10:24:12;;;;;;;0.63;0.40;;;;;;;;;;5065932;28;20264;-55
2024/04/06 10:26:45;;;;;;;0.75;0.57;;;;;;;;;;5065860;28;20219;-53
2024/04/06 10:29:12;;;;;;;0.40;0.40;;;;;;;;;;5047064;28;20187;-55
2024/04/06 10:31:40;;;;;;;0.70;0.47;;;;;;;;;;5065742;28;20698;-54
2024/04/06 10:34:07;;;;;;;0.55;0.55;;;;;;;;;;5065989;28;20203;-53
2024/04/06 10:36:33;;;;;;;0.30;0.30;;;;;;;;;;5067056;28;20202;-56
2024/04/06 10:38:59;;;;;;;1.88;0.85;;;;;;;;;;5064610;28;20203;-55
2024/04/06 10:41:25;;;;;;;0.88;0.55;;;;;;;;;;5053501;28;20231;-60
2024/04/06 10:43:51;;;;;;;1.05;0.55;;;;;;;;;;5051902;28;20211;-62
2024/04/06 10:46:18;;;;;;;0.82;0.55;;;;;;;;;;5067682;28;20195;-61
2024/04/06 10:48:44;;;;;;;1.25;0.57;;;;;;;;;;5046792;28;20202;-62
2024/04/06 10:51:13;;;;;;;2.38;0.70;;;;;;;;;;5069491;28;20199;-62
2024/04/06 10:53:39;;;;;;;0.60;0.50;;;;;;;;;;5055459;28;20202;-58
2024/04/06 10:56:05;;;;;;;2.28;0.65;;;;;;;;;;5069337;28;20215;-58
2024/04/06 10:58:31;;;;;;;0.70;0.65;;;;;;;;;;5033461;28;20617;-57
2024/04/06 11:00:58;;;;;;;0.80;0.60;;;;;;;;;;5068148;28;20214;-57
2024/04/06 11:03:23;;;;;;;1.15;0.65;;;;;;;;;;5050272;28;20238;-59
2024/04/06 11:05:51;;;;;;;0.63;0.45;;;;;;;;;;5049021;28;20770;-58
2024/04/06 11:08:18;;;;;;;0.90;0.40;;;;;;;;;;5067266;28;20210;-58
2024/04/06 11:10:45;;;;;;;0.70;0.45;;;;;;;;;;5063107;28;20191;-58
2024/04/06 11:13:11;;;;;;;0.50;0.50;;;;;;;;;;5053385;28;20596;-57
2024/04/06 11:15:38;;;;;;;0.80;0.50;;;;;;;;;;5068583;28;20214;-60
2024/04/06 11:18:06;;;;;;;0.50;0.43;;;;;;;;;;5066796;28;20936;-61
2024/04/06 11:20:33;;;;;;;0.65;0.50;;;;;;;;;;5049917;28;20286;-60
2024/04/06 11:22:59;;;;;;;1.33;0.50;;;;;;;;;;5064611;28;20305;-54
2024/04/06 11:25:27;;;;;;;0.70;0.57;;;;;;;;;;5049034;28;20286;-52
2024/04/06 11:27:52;;;;;;;1.40;0.40;;;;;;;;;;5048387;28;20211;-53
2024/04/06 11:30:20;;;;;;;0.93;0.40;;;;;;;;;;5062969;28;20218;-53
2024/04/06 11:32:48;;;;;;;1.23;0.40;;;;;;;;;;5064072;28;20224;-55
2024/04/06 11:35:15;;;;;;;0.45;0.45;;;;;;;;;;5048770;28;20226;-57
2024/04/06 11:37:40;;;;;;;1.80;1.70;;;;;;;;;;5062019;28;20752;-58
2024/04/06 11:40:08;;;;;;;1.10;1.00;;;;;;;;;;5068931;28;20294;-55
2024/04/06 11:42:35;;;;;;;0.95;0.73;;;;;;;;;;5068117;28;20249;-59
2024/04/06 11:45:01;;;;;;;1.05;0.60;;;;;;;;;;5049886;28;20374;-58
2024/04/06 11:47:27;;;;;;;1.33;0.60;;;;;;;;;;5065795;28;20235;-57
2024/04/06 11:49:53;;;;;;;1.00;1.00;;;;;;;;;;5072412;28;20198;-58
2024/04/06 11:52:19;;;;;;;0.88;0.70;;;;;;;;;;5070649;28;20206;-57
2024/04/06 11:54:46;;;;;;;0.98;0.70;;;;;;;;;;5073986;28;20202;-57
2024/04/06 11:57:12;;;;;;;2.47;2.28;;;;;;;;;;5061930;28;20196;-58
2024/04/06 11:59:41;;;;;;;5.85;5.35;;;;;;;;;;5055178;28;20210;-59
2024/04/06 12:02:06;;;;;;;4.70;3.40;;;;;;;;;;5065916;28;20214;-58
2024/04/06 12:04:33;;;;;;;1.60;1.50;;;;;;;;;;5050019;28;20198;-58
2024/04/06 12:07:00;;;;;;;1.63;0.80;;;;;;;;;;5061331;28;20218;-57
2024/04/06 12:09:27;;;;;;;0.52;0.50;;;;;;;;;;5054666;28;20210;-54
2024/04/06 12:11:53;;;;;;;0.40;0.40;;;;;;;;;;5061850;28;20628;-55
2024/04/06 12:14:20;;;;;;;0.45;0.45;;;;;;;;;;5048404;28;20286;-55
2024/04/06 12:16:47;;;;;;;2.30;2.03;;;;;;;;;;5047784;28;20195;-53
2024/04/06 12:19:12;;;;;;;3.45;3.08;;;;;;;;;;5051521;28;20190;-56
2024/04/06 12:21:39;;;;;;;1.83;1.45;;;;;;;;;;5061096;28;20206;-53
2024/04/06 12:24:05;;;;;;;0.60;0.60;;;;;;;;;;5066585;28;20199;-56
2024/04/06 12:26:32;;;;;;;1.17;0.80;;;;;;;;;;5067425;28;20305;-54
2024/04/06 12:28:58;;;;;;;0.50;0.50;;;;;;;;;;5066765;28;20199;-53
2024/04/06 12:31:24;;;;;;;0.80;0.70;;;;;;;;;;5049371;28;20205;-52
2024/04/06 12:33:52;;;;;;;1.10;0.73;;;;;;;;;;5062198;28;20203;-53
2024/04/06 12:36:19;;;;;;;0.88;0.50;;;;;;;;;;5050416;28;20199;-54
2024/04/06 12:38:44;;;;;;;0.35;0.35;;;;;;;;;;5063282;28;20218;-56
2024/04/06 12:41:11;;;;;;;1.15;0.70;;;;;;;;;;5056106;28;20242;-54
2024/04/06 12:43:37;;;;;;;1.40;1.30;;;;;;;;;;5054015;28;20231;-54
2024/04/06 12:46:04;;;;;;;3.15;2.85;;;;;;;;;;5023811;28;20203;-53
2024/04/06 12:48:30;;;;;;;12.93;11.45;;;;;;;;;;5046782;28;20200;-56
2024/04/06 12:50:58;;;;;;;13.55;12.10;;;;;;;;;;5030424;28;20206;-53
2024/04/06 12:53:24;;;;;;;9.38;8.43;;;;;;;;;;5064326;28;20298;-56
2024/04/06 12:55:50;;;;;;;10.55;8.45;;;;;;;;;;5066789;28;20286;-54
2024/04/06 12:58:16;;;;;;;6.05;4.47;;;;;;;;;;5066292;28;20202;-60
2024/04/06 13:00:43;;;;;;;3.40;2.05;;;;;;;;;;5050726;28;20208;-61
2024/04/06 13:03:09;;;;;;;4.40;2.03;;;;;;;;;;5062255;28;20226;-61
2024/04/06 13:05:36;;;;;;;5.07;2.10;;;;;;;;;;5065759;28;20682;-59
2024/04/06 13:08:03;;;;;;;2.50;1.42;;;;;;;;;;5066455;28;20249;-60
2024/04/06 13:10:31;;;;;;;9.18;3.50;;;;;;;;;;5048464;28;20258;-60
2024/04/06 13:12:57;;;;;;;3.90;1.83;;;;;;;;;;5025486;28;20724;-60
2024/04/06 13:15:23;;;;;;;8.25;4.75;;;;;;;;;;5046712;28;20294;-56
2024/04/06 13:17:49;;;;;;;19.40;5.13;;;;;;;;;;5062155;28;20260;-60
2024/04/06 13:20:25;;;;;;;3.55;2.08;;;;;;;;;;5063737;28;20797;-61
2024/04/06 13:22:51;;;;;;;6.28;2.47;;;;;;;;;;5047483;28;20300;-60
2024/04/06 13:25:20;;;;;;;8.63;3.28;;;;;;;;;;5011338;28;20672;-60
2024/04/06 13:27:45;;;;;;;2.95;1.45;;;;;;;;;;5046284;28;20215;-60
2024/04/06 13:30:12;;;;;;;3.53;1.58;;;;;;;;;;5047285;28;20329;-60
2024/04/06 13:32:39;;;;;;;1.90;1.30;;;;;;;;;;5047250;28;20200;-60
2024/04/06 13:35:06;;;;;;;3.65;2.13;;;;;;;;;;5054292;28;20204;-60
2024/04/06 13:37:33;;;;;;;2.97;1.55;;;;;;;;;;5061529;28;20195;-60
2024/04/06 13:39:58;;;;;;;3.47;1.63;;;;;;;;;;5050160;28;20211;-58
2024/04/06 13:42:27;;;;;;;2.58;1.80;;;;;;;;;;5046743;28;20805;-59
2024/04/06 13:44:52;;;;;;;3.22;2.63;;;;;;;;;;5060522;28;20203;-58
2024/04/06 13:47:19;;;;;;;3.13;1.75;;;;;;;;;;5050171;28;20195;-59
2024/04/06 13:49:45;;;;;;;1.50;1.40;;;;;;;;;;5057244;28;20286;-57
2024/04/06 13:52:11;;;;;;;1.90;1.50;;;;;;;;;;5047247;28;20314;-58
2024/04/06 13:54:37;;;;;;;4.68;1.73;;;;;;;;;;5059499;28;20206;-58
2024/04/06 13:57:04;;;;;;;2.30;1.23;;;;;;;;;;5066803;28;20198;-57
2024/04/06 13:59:31;;;;;;;11.40;4.13;;;;;;;;;;5065857;28;20853;-59
2024/04/06 14:01:59;;;;;;;2.10;1.55;;;;;;;;;;5082004;28;20208;-61
2024/04/06 14:04:24;;;;;;;2.10;1.70;;;;;;;;;;5066214;28;20253;-60
2024/04/06 14:06:51;;;;;;;2.35;1.08;;;;;;;;;;5059448;28;20199;-61
2024/04/06 14:09:18;;;;;;;1.77;1.35;;;;;;;;;;5056313;28;20676;-61
2024/04/06 14:11:45;;;;;;;3.85;1.60;;;;;;;;;;5058865;28;20211;-60
2024/04/06 14:14:15;;;;;;;2.67;1.52;;;;;;;;;;5067353;28;20737;-61
2024/04/06 14:16:44;;;;;;;2.20;1.00;;;;;;;;;;5074744;28;20282;-62
2024/04/06 14:19:10;;;;;;;1.88;1.10;;;;;;;;;;5077469;28;20203;-60
2024/04/06 14:21:37;;;;;;;3.88;3.58;;;;;;;;;;5065523;28;20201;-61
2024/04/06 14:24:03;;;;;;;7.10;6.38;;;;;;;;;;5072454;28;20199;-62
2024/04/06 14:26:29;;;;;;;2.53;2.13;;;;;;;;;;5081737;28;21012;-62
2024/04/06 14:28:55;;;;;;;1.70;1.60;;;;;;;;;;5076601;28;20597;-61
2024/04/06 14:31:22;;;;;;;1.02;0.80;;;;;;;;;;5073773;28;20199;-62
2024/04/06 14:33:49;;;;;;;2.28;0.90;;;;;;;;;;5047015;28;20235;-62
2024/04/06 14:36:16;;;;;;;1.27;0.60;;;;;;;;;;5066434;28;20225;-62
2024/04/06 14:38:41;;;;;;;1.10;0.70;;;;;;;;;;5030095;28;20292;-61